KATW/ATW METAR and TAF weather

Enter ICAO airport designator
Station Type Date Time Source
KATW METAR 2021/01/22 06:55 UTC NOAA

KATW 220655Z AUTO 32012G17KT 10SM SCT030 M10/M18 A2988 RMK AO2


Station Type Date Time Source
KATW Decoded METAR 2021/01/22 06:55 UTC NOAA

Appleton / Outagamie, WI, United States (KATW) 44-15N 088-31W
Jan 22, 2021 - 01:55 AM EST / 2021.01.22 0655 UTC
Wind: from the NW (320 degrees) at 14 MPH (12 KT) gusting to 20 MPH (17 KT):0
Visibility: 10 mile(s):0
Sky conditions: partly cloudy
Temperature: 14 F (-10 C)
Windchill: 0 F (-18 C):1
Dew Point: 0 F (-18 C)
Relative Humidity: 51%
Pressure (altimeter): 29.88 in. Hg (1011 hPa)
ob: KATW 220655Z AUTO 32012G17KT 10SM SCT030 M10/M18 A2988 RMK AO2
cycle: 7

Station Type Date Time Source
KATW TAF 2021/01/22 06:22 UTC NOAA

TAF KATW 220520Z 2206/2306 31014G22KT P6SM BKN035
TEMPO 2211/2215 SCT035
FM221500 30011G17KT P6SM SCT045
FM230000 28007KT P6SM SCT100

Example: see airport list